createdAt,value
2018-07-21T00:00:39.661Z,101122.55
2018-07-21T00:03:44.034Z,101123.42
2018-07-21T00:06:48.404Z,101122.55
2018-07-21T00:09:52.709Z,101120.80
2018-07-21T00:12:57.105Z,101122.11
2018-07-21T00:16:02.419Z,101122.52
2018-07-21T00:19:06.965Z,101121.21
2018-07-21T00:22:11.252Z,101129.07
2018-07-21T00:25:15.674Z,101123.40
2018-07-21T00:28:19.995Z,101127.76
2018-07-21T00:31:24.297Z,101122.08
2018-07-21T00:34:28.608Z,101116.36
2018-07-21T00:37:32.875Z,101111.56
2018-07-21T00:40:37.167Z,101107.19
2018-07-21T00:43:41.447Z,101111.55
2018-07-21T00:46:45.855Z,101110.69
2018-07-21T00:49:50.293Z,101112.43
2018-07-21T00:52:54.784Z,101111.16
2018-07-21T00:55:59.098Z,101108.95
2018-07-21T00:59:03.508Z,101102.41
2018-07-21T01:02:07.852Z,101094.95
2018-07-21T01:05:12.243Z,101096.22
2018-07-21T01:08:16.654Z,101094.86
2018-07-21T01:11:20.973Z,101098.76
2018-07-21T01:14:25.420Z,101098.30
2018-07-21T01:17:29.977Z,101103.08
2018-07-21T01:20:34.363Z,101099.57
2018-07-21T01:23:38.801Z,101095.20
2018-07-21T01:26:43.212Z,101093.91
2018-07-21T01:29:47.555Z,101094.33
2018-07-21T01:32:52.048Z,101093.00
2018-07-21T01:35:56.483Z,101080.33
2018-07-21T01:39:00.959Z,101080.75
2018-07-21T01:42:05.332Z,101072.00
2018-07-21T01:45:09.733Z,101071.56
2018-07-21T01:48:14.135Z,101073.30
2018-07-21T01:51:18.590Z,101068.11
2018-07-21T01:54:23.026Z,101071.62
2018-07-21T01:57:27.578Z,101071.64
2018-07-21T02:00:31.871Z,101081.67
2018-07-21T02:03:36.375Z,101084.25
2018-07-21T02:06:40.768Z,101078.13
2018-07-21T02:09:45.639Z,101082.45
2018-07-21T02:12:49.947Z,101084.59
2018-07-21T02:15:54.249Z,101081.97
2018-07-21T02:18:58.793Z,101081.92
2018-07-21T02:22:03.248Z,101082.33
2018-07-21T02:25:07.988Z,101081.41
2018-07-21T02:28:12.381Z,101078.31
2018-07-21T02:31:16.977Z,101066.99
2018-07-21T02:34:21.240Z,101076.09
2018-07-21T02:37:25.532Z,101070.93
2018-07-21T02:40:29.903Z,101070.50
2018-07-21T02:43:34.214Z,101073.53
2018-07-21T02:46:38.530Z,101076.58
2018-07-21T02:49:43.067Z,101078.31
2018-07-21T02:52:47.487Z,101074.79
2018-07-21T02:55:51.883Z,101077.87
2018-07-21T02:58:56.636Z,101073.92
2018-07-21T03:02:01.187Z,101073.02
2018-07-21T03:05:05.776Z,101071.24
2018-07-21T03:08:10.193Z,101065.09
2018-07-21T03:11:14.811Z,101065.53
2018-07-21T03:14:19.461Z,101066.44
2018-07-21T03:17:23.892Z,101064.73
2018-07-21T03:20:28.361Z,101067.34
2018-07-21T03:23:32.713Z,101063.02
2018-07-21T03:26:37.044Z,101054.72
2018-07-21T03:29:41.453Z,101058.59
2018-07-21T03:32:46.145Z,101066.50
2018-07-21T03:35:50.661Z,101066.08
2018-07-21T03:38:55.080Z,101066.14
2018-07-21T03:41:59.598Z,101064.03
2018-07-21T03:45:04.134Z,101054.96
2018-07-21T03:48:08.552Z,101055.89
2018-07-21T03:51:12.993Z,101062.49
2018-07-21T03:54:17.351Z,101069.98
2018-07-21T03:57:21.541Z,101070.45
2018-07-21T04:00:25.934Z,101075.78
2018-07-21T04:03:30.412Z,101077.55
2018-07-21T04:06:34.796Z,101077.94
2018-07-21T04:09:39.206Z,101074.37
2018-07-21T04:12:43.829Z,101076.92
2018-07-21T04:15:48.357Z,101072.97
2018-07-21T04:18:52.835Z,101072.09
2018-07-21T04:21:57.295Z,101083.01
2018-07-21T04:25:01.629Z,101086.92
2018-07-21T04:28:06.128Z,101086.10
2018-07-21T04:31:10.453Z,101082.59
2018-07-21T04:34:14.841Z,101081.30
2018-07-21T04:37:19.266Z,101080.87
2018-07-21T04:40:23.745Z,101080.87
2018-07-21T04:43:28.243Z,101077.83
2018-07-21T04:46:32.675Z,101077.84
2018-07-21T04:49:37.035Z,101080.92
2018-07-21T04:52:41.509Z,101088.42
2018-07-21T04:55:45.931Z,101090.17
2018-07-21T04:58:50.323Z,101092.83
2018-07-21T05:01:54.643Z,101090.21
2018-07-21T05:04:59.077Z,101082.80
2018-07-21T05:08:03.855Z,101087.59
2018-07-21T05:11:08.320Z,101086.30
2018-07-21T05:14:12.605Z,101081.47
2018-07-21T05:17:16.954Z,101074.05
2018-07-21T05:20:21.310Z,101080.16
2018-07-21T05:23:25.709Z,101083.20
2018-07-21T05:26:30.045Z,101076.17
2018-07-21T05:29:34.581Z,101085.38
2018-07-21T05:32:38.923Z,101075.70
2018-07-21T05:35:43.419Z,101077.37
2018-07-21T05:38:48.032Z,101085.20
2018-07-21T05:41:52.578Z,101083.84
2018-07-21T05:44:58.357Z,101079.78
2018-07-21T05:48:03.015Z,101084.98
2018-07-21T05:51:07.650Z,101080.06
2018-07-21T05:54:12.345Z,101082.61
2018-07-21T05:57:16.885Z,101077.74
2018-07-21T06:00:21.359Z,101085.05
2018-07-21T06:03:25.945Z,101081.45
2018-07-21T06:06:30.379Z,101072.59
2018-07-21T06:09:34.811Z,101069.84
2018-07-21T06:12:39.386Z,101072.81
2018-07-21T06:15:43.807Z,101081.94
2018-07-21T06:18:48.370Z,101080.95
2018-07-21T06:21:52.801Z,101090.03
2018-07-21T06:24:57.242Z,101081.13
2018-07-21T06:28:01.628Z,101084.14
2018-07-21T06:31:06.134Z,101085.75
2018-07-21T06:34:10.732Z,101089.61
2018-07-21T06:37:15.152Z,101089.97
2018-07-21T06:40:19.681Z,101095.95
2018-07-21T06:43:24.202Z,101101.55
2018-07-21T06:46:28.530Z,101099.31
2018-07-21T06:49:32.925Z,101092.05
2018-07-21T06:52:37.509Z,101098.98
2018-07-21T06:55:42.048Z,101095.36
2018-07-21T06:58:46.462Z,101095.53
2018-07-21T07:01:51.253Z,101099.34
2018-07-21T07:04:55.575Z,101093.89
2018-07-21T07:08:00.138Z,101101.60
2018-07-21T07:11:04.755Z,101099.24
2018-07-21T07:14:09.195Z,101107.89
2018-07-21T07:17:14.095Z,101110.33
2018-07-21T07:20:18.449Z,101106.12
2018-07-21T07:23:22.818Z,101099.41
2018-07-21T07:26:27.268Z,101103.28
2018-07-21T07:29:34.742Z,101101.72
2018-07-21T07:32:39.121Z,101099.31
2018-07-21T07:35:43.480Z,101105.72
2018-07-21T07:38:47.935Z,101098.00
2018-07-21T07:41:52.372Z,101095.13
2018-07-21T07:44:56.772Z,101095.30
2018-07-21T07:48:01.086Z,101094.74
2018-07-21T07:51:05.592Z,101095.86
2018-07-21T07:54:09.938Z,101099.65
2018-07-21T07:57:14.341Z,101104.71
2018-07-21T08:00:18.764Z,101097.25
2018-07-21T08:03:23.080Z,101105.16
2018-07-21T08:06:27.339Z,101104.20
2018-07-21T08:09:31.727Z,101108.61
2018-07-21T08:12:36.183Z,101105.41
2018-07-21T08:15:40.476Z,101104.95
2018-07-21T08:18:44.757Z,101093.50
2018-07-21T08:21:49.128Z,101095.05
2018-07-21T08:24:53.590Z,101093.80
2018-07-21T08:27:58.297Z,101097.38
2018-07-21T08:31:02.781Z,101088.26
2018-07-21T08:34:07.213Z,101083.44
2018-07-21T08:37:11.662Z,101083.79
2018-07-21T08:40:16.033Z,101077.41
2018-07-21T08:43:20.293Z,101078.94
2018-07-21T08:46:24.749Z,101080.53
2018-07-21T08:49:29.249Z,101086.50
2018-07-21T08:52:33.620Z,101085.23
2018-07-21T08:55:38.178Z,101081.86
2018-07-21T08:58:42.504Z,101085.47
2018-07-21T09:01:46.822Z,101079.56
2018-07-21T09:04:51.116Z,101078.72
2018-07-21T09:07:55.474Z,101080.45
2018-07-21T09:10:59.852Z,101071.66
2018-07-21T09:14:04.179Z,101066.27
2018-07-21T09:17:08.489Z,101071.76
2018-07-21T09:20:12.781Z,101062.90
2018-07-21T09:23:17.128Z,101066.97
2018-07-21T09:26:21.428Z,101073.66
2018-07-21T09:29:25.902Z,101067.18
2018-07-21T09:32:30.209Z,101063.19
2018-07-21T09:35:34.506Z,101065.80
2018-07-21T09:38:38.933Z,101070.77
2018-07-21T09:41:43.257Z,101062.58
2018-07-21T09:44:47.581Z,101062.27
2018-07-21T09:47:52.037Z,101060.28
2018-07-21T09:50:56.280Z,101060.70
2018-07-21T09:54:00.680Z,101058.74
2018-07-21T09:57:05.149Z,101059.65
2018-07-21T10:00:11.519Z,101056.77
2018-07-21T10:03:16.021Z,101056.95
2018-07-21T10:06:20.404Z,101055.76
2018-07-21T10:09:24.772Z,101062.19
2018-07-21T10:12:29.716Z,101055.16
2018-07-21T10:15:34.198Z,101055.19
2018-07-21T10:18:38.603Z,101058.54
2018-07-21T10:21:43.101Z,101051.33
2018-07-21T10:24:53.021Z,101047.30
2018-07-21T10:28:02.810Z,101043.47
2018-07-21T10:31:07.300Z,101045.06
2018-07-21T10:34:12.347Z,101042.53
2018-07-21T10:37:16.762Z,101032.73
2018-07-21T10:40:21.132Z,101027.98
2018-07-21T10:43:25.492Z,101025.09
2018-07-21T10:46:30.016Z,101019.26
2018-07-21T10:49:34.472Z,101022.47
2018-07-21T10:52:39.048Z,101013.75
2018-07-21T10:55:43.410Z,101015.15
2018-07-21T10:58:47.873Z,101009.13
2018-07-21T11:01:52.252Z,101009.78
2018-07-21T11:04:56.729Z,101001.78
2018-07-21T11:08:01.212Z,101004.66
2018-07-21T11:11:05.536Z,101011.44
2018-07-21T11:14:09.869Z,101010.28
2018-07-21T11:17:14.278Z,101011.38
2018-07-21T11:20:18.855Z,100994.61
2018-07-21T11:23:23.159Z,101002.25
2018-07-21T11:26:27.619Z,100994.61
2018-07-21T11:29:31.883Z,100992.27
2018-07-21T11:32:36.233Z,100992.72
2018-07-21T11:35:40.649Z,100988.50
2018-07-21T11:38:45.035Z,100990.61
2018-07-21T11:41:49.467Z,100989.24
2018-07-21T11:44:53.871Z,100989.98
2018-07-21T11:47:58.239Z,100989.66
2018-07-21T11:51:03.141Z,100992.00
2018-07-21T11:54:07.490Z,100987.48
2018-07-21T11:57:11.919Z,100984.33
2018-07-21T12:00:16.270Z,100988.77
2018-07-21T12:03:21.028Z,100985.19
2018-07-21T12:06:25.417Z,100984.11
2018-07-21T12:09:29.725Z,100990.44
2018-07-21T12:12:34.105Z,100985.61
2018-07-21T12:15:38.503Z,100985.95
2018-07-21T12:18:42.760Z,100986.59
2018-07-21T12:21:47.231Z,100987.00
2018-07-21T12:24:51.756Z,100979.64
2018-07-21T12:27:56.244Z,100982.56
2018-07-21T12:31:00.604Z,100977.83
2018-07-21T12:34:04.935Z,100978.98
2018-07-21T12:37:09.411Z,100982.25
2018-07-21T12:40:13.765Z,100978.04
2018-07-21T12:43:18.143Z,100981.72
2018-07-21T12:46:22.720Z,100975.65
2018-07-21T12:49:27.143Z,100973.30
2018-07-21T12:52:31.568Z,100972.41
2018-07-21T12:55:35.931Z,100972.11
2018-07-21T12:58:40.297Z,100971.79
2018-07-21T13:01:44.588Z,100963.94
2018-07-21T13:04:49.085Z,100968.84
2018-07-21T13:07:53.477Z,100967.67
2018-07-21T13:10:57.964Z,100962.19
2018-07-21T13:14:02.352Z,100964.16
2018-07-21T13:17:06.685Z,100964.70
2018-07-21T13:20:11.098Z,100954.28
2018-07-21T13:23:15.565Z,100952.20
2018-07-21T13:26:19.871Z,100957.95
2018-07-21T13:29:24.287Z,100950.59
2018-07-21T13:32:28.697Z,100952.48
2018-07-21T13:35:33.156Z,100958.58
2018-07-21T13:38:37.555Z,100954.77
2018-07-21T13:41:41.986Z,100952.69
2018-07-21T13:44:46.439Z,100953.10
2018-07-21T13:47:50.977Z,100949.55
2018-07-21T13:50:55.341Z,100950.70
2018-07-21T13:53:59.898Z,100952.98
2018-07-21T13:57:04.122Z,100950.25
2018-07-21T14:00:08.423Z,100961.20
2018-07-21T14:03:12.962Z,100947.19
2018-07-21T14:06:17.443Z,100950.84
2018-07-21T14:09:21.855Z,100950.16
2018-07-21T14:12:26.198Z,100950.44
2018-07-21T14:15:30.458Z,100951.20
2018-07-21T14:18:35.002Z,100941.33
2018-07-21T14:21:39.331Z,100942.02
2018-07-21T14:24:43.996Z,100944.94
2018-07-21T14:27:48.293Z,100939.03
2018-07-21T14:30:52.832Z,100933.38
2018-07-21T14:33:57.503Z,100940.37
2018-07-21T14:37:02.211Z,100937.75
2018-07-21T14:40:06.541Z,100938.42
2018-07-21T14:43:11.082Z,100941.41
2018-07-21T14:46:15.578Z,100939.36
2018-07-21T14:49:20.080Z,100937.36
2018-07-21T14:52:24.319Z,100939.88
2018-07-21T14:55:28.740Z,100936.16
2018-07-21T14:58:33.122Z,100934.84
2018-07-21T15:01:37.622Z,100931.61
2018-07-21T15:04:41.988Z,100930.69
2018-07-21T15:07:46.293Z,100930.89
2018-07-21T15:10:50.624Z,100936.95
2018-07-21T15:13:54.932Z,100930.58
2018-07-21T15:16:59.256Z,100933.05
2018-07-21T15:20:03.760Z,100929.44
2018-07-21T15:23:08.143Z,100935.09
2018-07-21T15:26:12.468Z,100929.55
2018-07-21T15:29:16.814Z,100936.36
2018-07-21T15:32:21.133Z,100934.17
2018-07-21T15:35:25.421Z,100931.48
2018-07-21T15:38:30.524Z,100926.91
2018-07-21T15:41:35.014Z,100930.97
2018-07-21T15:44:39.277Z,100922.97
2018-07-21T15:47:43.703Z,100925.95
2018-07-21T15:50:47.985Z,100924.97
2018-07-21T15:53:52.402Z,100924.37
2018-07-21T15:56:56.759Z,100930.47
2018-07-21T16:00:01.153Z,100928.67
2018-07-21T16:03:05.300Z,100929.17
2018-07-21T16:06:09.664Z,100922.70
2018-07-21T16:09:14.132Z,100922.73
2018-07-21T16:12:18.579Z,100924.87
2018-07-21T16:15:22.975Z,100919.89
2018-07-21T16:18:27.309Z,100917.64
2018-07-21T16:21:31.610Z,100929.38
2018-07-21T16:24:36.000Z,100923.54
2018-07-21T16:27:40.442Z,100924.97
2018-07-21T16:30:44.792Z,100928.01
2018-07-21T16:33:49.215Z,100932.04
2018-07-21T16:36:53.723Z,100927.17
2018-07-21T16:39:58.154Z,100932.59
2018-07-21T16:43:02.577Z,100924.98
2018-07-21T16:46:06.868Z,100932.33
2018-07-21T16:49:11.089Z,100928.64
2018-07-21T16:52:15.380Z,100928.64
2018-07-21T16:55:19.712Z,100920.38
2018-07-21T16:58:24.187Z,100920.66
2018-07-21T17:01:28.790Z,100918.90
2018-07-21T17:04:33.268Z,100917.78
2018-07-21T17:07:38.065Z,100911.52
2018-07-21T17:10:42.844Z,100918.59
2018-07-21T17:13:47.429Z,100908.34
2018-07-21T17:16:51.963Z,100917.91
2018-07-21T17:19:56.394Z,100917.23
2018-07-21T17:23:01.135Z,100912.45
2018-07-21T17:26:05.751Z,100918.48
2018-07-21T17:29:10.429Z,100918.06
2018-07-21T17:32:14.826Z,100911.84
2018-07-21T17:35:19.119Z,100914.50
2018-07-21T17:38:23.451Z,100922.58
2018-07-21T17:41:27.964Z,100921.50
2018-07-21T17:44:32.297Z,100923.59
2018-07-21T17:47:36.652Z,100922.61
2018-07-21T17:50:41.051Z,100922.85
2018-07-21T17:53:45.410Z,100918.73
2018-07-21T17:56:49.697Z,100922.27
2018-07-21T17:59:54.063Z,100912.48
2018-07-21T18:02:58.465Z,100922.84
2018-07-21T18:06:02.809Z,100920.54
2018-07-21T18:09:08.668Z,100915.66
2018-07-21T18:12:13.004Z,100914.03
2018-07-21T18:15:17.371Z,100916.88
2018-07-21T18:18:21.759Z,100918.35
2018-07-21T18:21:26.691Z,100915.39
2018-07-21T18:24:31.080Z,100919.95
2018-07-21T18:27:35.527Z,100925.52
2018-07-21T18:30:39.910Z,100918.37
2018-07-21T18:33:44.298Z,100911.20
2018-07-21T18:36:48.599Z,100910.10
2018-07-21T18:39:52.958Z,100907.23
2018-07-21T18:42:57.290Z,100909.17
2018-07-21T18:46:01.690Z,100908.75
2018-07-21T18:49:06.266Z,100909.82
2018-07-21T18:52:10.692Z,100910.03
2018-07-21T18:55:15.029Z,100914.66
2018-07-21T18:58:19.745Z,100913.43
2018-07-21T19:01:24.142Z,100912.31
2018-07-21T19:04:28.556Z,100919.94
2018-07-21T19:07:33.178Z,100921.37
2018-07-21T19:10:37.497Z,100919.25
2018-07-21T19:13:41.974Z,100914.12
2018-07-21T19:16:46.384Z,100918.63
2018-07-21T19:19:56.272Z,100916.05
2018-07-21T19:23:00.548Z,100915.78
2018-07-21T19:26:10.210Z,100907.14
2018-07-21T19:29:14.628Z,100917.47
2018-07-21T19:32:24.391Z,100919.48
2018-07-21T19:35:30.457Z,100917.42
2018-07-21T19:38:35.855Z,100921.98
2018-07-21T19:41:45.378Z,100920.82
2018-07-21T19:44:49.867Z,100922.70
2018-07-21T19:47:54.396Z,100925.47
2018-07-21T19:50:58.972Z,100921.23
2018-07-21T19:54:03.496Z,100927.47
2018-07-21T19:57:08.016Z,100925.02
2018-07-21T20:00:12.542Z,100920.73
2018-07-21T20:03:17.224Z,100926.97
2018-07-21T20:06:21.591Z,100931.01
2018-07-21T20:09:26.027Z,100924.38
2018-07-21T20:12:30.542Z,100927.03
2018-07-21T20:15:35.322Z,100929.77
2018-07-21T20:18:39.820Z,100932.02
2018-07-21T20:21:44.236Z,100931.55
2018-07-21T20:24:48.710Z,100932.02
2018-07-21T20:27:53.125Z,100929.20
2018-07-21T20:30:57.517Z,100940.88
2018-07-21T20:34:01.842Z,100943.31
2018-07-21T20:37:06.215Z,100941.64
2018-07-21T20:40:10.663Z,100937.01
2018-07-21T20:43:15.085Z,100936.36
2018-07-21T20:46:19.452Z,100938.36
2018-07-21T20:49:23.837Z,100941.24
2018-07-21T20:52:28.171Z,100934.76
2018-07-21T20:55:32.611Z,100940.07
2018-07-21T20:58:37.029Z,100937.94
2018-07-21T21:01:41.359Z,100933.10
2018-07-21T21:04:45.780Z,100935.29
2018-07-21T21:07:50.187Z,100933.20
2018-07-21T21:10:54.634Z,100931.13
2018-07-21T21:13:58.946Z,100928.08
2018-07-21T21:17:03.377Z,100933.92
2018-07-21T21:20:07.727Z,100933.13
2018-07-21T21:23:12.105Z,100933.16
2018-07-21T21:26:16.515Z,100934.63
2018-07-21T21:29:21.601Z,100936.92
2018-07-21T21:32:25.927Z,100943.61
2018-07-21T21:35:30.379Z,100940.50
2018-07-21T21:38:34.806Z,100945.79
2018-07-21T21:41:39.198Z,100945.86
2018-07-21T21:44:43.633Z,100941.11
2018-07-21T21:47:47.816Z,100945.94
2018-07-21T21:50:52.194Z,100950.30
2018-07-21T21:53:56.681Z,100948.03
2018-07-21T21:57:00.887Z,100946.63
2018-07-21T22:00:09.083Z,100940.95
2018-07-21T22:03:13.557Z,100941.52
2018-07-21T22:06:17.979Z,100933.69
2018-07-21T22:09:22.374Z,100934.53
2018-07-21T22:12:26.850Z,100935.37
2018-07-21T22:15:31.317Z,100934.55
2018-07-21T22:18:35.780Z,100937.64
2018-07-21T22:21:40.216Z,100936.33
2018-07-21T22:24:44.854Z,100933.20
2018-07-21T22:27:49.341Z,100933.28
2018-07-21T22:30:53.864Z,100934.77
2018-07-21T22:33:58.970Z,100939.66
2018-07-21T22:37:03.406Z,100933.15
2018-07-21T22:40:07.858Z,100931.53
2018-07-21T22:43:12.262Z,100930.34
2018-07-21T22:46:16.724Z,100936.47
2018-07-21T22:49:21.157Z,100927.25
2018-07-21T22:52:25.560Z,100928.22
2018-07-21T22:55:29.986Z,100927.91
2018-07-21T22:58:34.401Z,100920.80
2018-07-21T23:01:38.883Z,100921.70
2018-07-21T23:04:43.308Z,100920.95
2018-07-21T23:07:47.728Z,100927.23
2018-07-21T23:10:52.125Z,100932.09
2018-07-21T23:13:56.639Z,100926.98
2018-07-21T23:17:00.965Z,100925.74
2018-07-21T23:20:06.612Z,100923.62
2018-07-21T23:23:11.028Z,100920.61
2018-07-21T23:26:15.473Z,100917.97
2018-07-21T23:29:20.025Z,100924.16
2018-07-21T23:32:24.460Z,100928.59
2018-07-21T23:35:28.916Z,100926.47
2018-07-21T23:38:33.336Z,100930.91
2018-07-21T23:41:37.693Z,100935.37
2018-07-21T23:44:42.115Z,100933.16
2018-07-21T23:47:46.424Z,100934.52
2018-07-21T23:50:51.065Z,100937.63
2018-07-21T23:53:55.386Z,100931.96
2018-07-21T23:56:59.735Z,100936.72
